createdAt,value
2023-01-26T00:01:17.964Z,42.58
2023-01-26T00:03:45.115Z,40.63
2023-01-26T00:06:14.590Z,42.85
2023-01-26T00:08:44.135Z,43.53
2023-01-26T00:11:14.411Z,50.33
2023-01-26T00:13:41.860Z,42.53
2023-01-26T00:16:10.797Z,43.47
2023-01-26T00:18:39.739Z,39.83
2023-01-26T00:21:07.785Z,47.78
2023-01-26T00:23:35.859Z,47.13
2023-01-26T00:26:05.627Z,45.75
2023-01-26T00:28:32.508Z,49.22
2023-01-26T00:31:17.186Z,49.50
2023-01-26T00:33:44.390Z,48.50
2023-01-26T00:36:11.592Z,47.63
2023-01-26T00:38:39.260Z,42.92
2023-01-26T00:41:06.682Z,52.08
2023-01-26T00:43:33.987Z,51.15
2023-01-26T00:46:00.815Z,55.67
2023-01-26T00:48:27.592Z,37.92
2023-01-26T00:50:54.397Z,41.90
2023-01-26T00:53:21.208Z,51.17
2023-01-26T00:55:48.035Z,52.28
2023-01-26T00:58:14.799Z,55.45
2023-01-26T01:00:41.649Z,43.80
2023-01-26T01:03:08.631Z,48.67
2023-01-26T01:05:35.557Z,41.78
2023-01-26T01:08:02.873Z,50.75
2023-01-26T01:10:29.949Z,46.10
2023-01-26T01:12:56.951Z,46.53
2023-01-26T01:15:24.687Z,41.00
2023-01-26T01:17:52.070Z,44.70
2023-01-26T01:20:19.265Z,45.67
2023-01-26T01:22:46.006Z,43.03
2023-01-26T01:25:12.941Z,40.28
2023-01-26T01:27:39.787Z,43.80
2023-01-26T01:30:08.428Z,40.33
2023-01-26T01:32:36.384Z,41.53
2023-01-26T01:35:03.858Z,43.13
2023-01-26T01:37:31.523Z,40.55
2023-01-26T01:39:58.305Z,41.53
2023-01-26T01:42:26.430Z,34.47
2023-01-26T01:45:27.439Z,42.55
2023-01-26T01:48:01.308Z,38.97
2023-01-26T01:50:28.530Z,40.38
2023-01-26T01:52:56.052Z,42.40
2023-01-26T01:55:25.710Z,34.78
2023-01-26T01:58:00.195Z,43.40
2023-01-26T02:00:27.421Z,41.35
2023-01-26T02:03:21.098Z,38.70
2023-01-26T02:05:53.808Z,37.10
2023-01-26T02:08:24.886Z,46.80
2023-01-26T02:10:55.187Z,39.30
2023-01-26T02:13:24.157Z,41.45
2023-01-26T02:15:52.098Z,41.85
2023-01-26T02:18:19.199Z,36.20
2023-01-26T02:20:50.753Z,38.53
2023-01-26T02:23:20.677Z,38.13
2023-01-26T02:25:52.077Z,42.67
2023-01-26T02:28:25.741Z,40.65
2023-01-26T02:30:54.337Z,34.50
2023-01-26T02:33:58.956Z,37.35
2023-01-26T02:36:27.841Z,40.63
2023-01-26T02:39:32.455Z,36.17
2023-01-26T02:42:17.551Z,35.38
2023-01-26T02:44:44.938Z,36.95
2023-01-26T02:47:17.377Z,37.63
2023-01-26T02:49:47.410Z,35.13
2023-01-26T02:52:15.598Z,29.55
2023-01-26T02:55:00.831Z,35.85
2023-01-26T02:57:27.862Z,34.30
2023-01-26T02:59:54.672Z,41.05
2023-01-26T03:02:21.738Z,36.15
2023-01-26T03:04:48.535Z,35.03
2023-01-26T03:07:15.348Z,37.58
2023-01-26T03:09:42.215Z,39.33
2023-01-26T03:12:09.080Z,39.17
2023-01-26T03:14:35.935Z,34.53
2023-01-26T03:17:02.776Z,38.95
2023-01-26T03:19:48.392Z,39.63
2023-01-26T03:22:33.973Z,32.65
2023-01-26T03:25:19.705Z,33.88
2023-01-26T03:27:48.950Z,38.28
2023-01-26T03:30:18.722Z,33.78
2023-01-26T03:32:45.714Z,34.78
2023-01-26T03:35:15.404Z,33.15
2023-01-26T03:37:45.805Z,31.08
2023-01-26T03:40:32.372Z,29.75
2023-01-26T03:43:17.854Z,35.03
2023-01-26T03:46:03.316Z,39.30
2023-01-26T03:48:48.741Z,33.13
2023-01-26T03:51:34.243Z,35.40
2023-01-26T03:54:19.675Z,34.95
2023-01-26T03:56:46.506Z,37.35
2023-01-26T03:59:15.473Z,28.75
2023-01-26T04:02:04.021Z,37.03
2023-01-26T04:04:50.069Z,31.00
2023-01-26T04:07:35.625Z,31.77
2023-01-26T04:10:02.419Z,31.45
2023-01-26T04:12:29.184Z,35.28
2023-01-26T04:15:14.489Z,40.15
2023-01-26T04:17:59.951Z,35.42
2023-01-26T04:20:45.262Z,35.42
2023-01-26T04:23:21.387Z,33.30
2023-01-26T04:25:49.024Z,35.53
2023-01-26T04:28:16.017Z,33.65
2023-01-26T04:30:43.156Z,33.65
2023-01-26T04:33:10.851Z,36.33
2023-01-26T04:35:37.602Z,37.40
2023-01-26T04:38:04.417Z,29.67
2023-01-26T04:40:31.329Z,31.25
2023-01-26T04:42:58.158Z,29.27
2023-01-26T04:45:24.927Z,46.92
2023-01-26T04:47:51.669Z,36.33
2023-01-26T04:50:18.604Z,30.10
2023-01-26T04:52:45.555Z,32.75
2023-01-26T04:55:12.362Z,35.50
2023-01-26T04:57:39.246Z,38.78
2023-01-26T05:00:06.808Z,33.22
2023-01-26T05:02:33.588Z,31.75
2023-01-26T05:05:00.327Z,34.83
2023-01-26T05:07:27.136Z,35.45
2023-01-26T05:09:55.732Z,36.55
2023-01-26T05:12:34.434Z,36.92
2023-01-26T05:15:01.312Z,31.45
2023-01-26T05:17:28.364Z,36.33
2023-01-26T05:19:55.156Z,36.28
2023-01-26T05:22:22.069Z,34.67
2023-01-26T05:24:48.805Z,32.85
2023-01-26T05:27:21.588Z,41.97
2023-01-26T05:29:49.813Z,38.25
2023-01-26T05:32:16.924Z,36.38
2023-01-26T05:34:43.685Z,35.25
2023-01-26T05:37:11.666Z,35.00
2023-01-26T05:39:39.385Z,32.75
2023-01-26T05:42:06.191Z,29.77
2023-01-26T05:44:33.082Z,38.75
2023-01-26T05:46:59.857Z,40.70
2023-01-26T05:49:26.672Z,33.40
2023-01-26T05:51:53.479Z,36.28
2023-01-26T05:54:20.367Z,35.72
2023-01-26T05:56:47.141Z,31.80
2023-01-26T05:59:14.402Z,35.60
2023-01-26T06:01:41.397Z,37.75
2023-01-26T06:04:08.312Z,41.97
2023-01-26T06:06:35.130Z,35.60
2023-01-26T06:09:01.936Z,37.47
2023-01-26T06:11:28.725Z,33.05
2023-01-26T06:13:55.487Z,41.33
2023-01-26T06:16:22.317Z,35.35
2023-01-26T06:18:54.703Z,35.67
2023-01-26T06:21:21.924Z,41.05
2023-01-26T06:23:48.801Z,33.38
2023-01-26T06:26:15.852Z,39.10
2023-01-26T06:28:42.763Z,39.15
2023-01-26T06:31:10.916Z,37.85
2023-01-26T06:33:38.474Z,38.33
2023-01-26T06:36:10.595Z,33.20
2023-01-26T06:38:37.744Z,35.85
2023-01-26T06:41:06.829Z,30.77
2023-01-26T06:43:35.308Z,35.83
2023-01-26T06:46:03.826Z,33.92
2023-01-26T06:48:35.513Z,32.65
2023-01-26T06:51:20.777Z,35.28
2023-01-26T06:53:54.731Z,33.03
2023-01-26T06:56:22.954Z,35.88
2023-01-26T06:58:50.391Z,29.08
2023-01-26T07:01:22.273Z,30.00
2023-01-26T07:03:50.017Z,36.88
2023-01-26T07:06:17.291Z,32.42
2023-01-26T07:08:44.401Z,28.90
2023-01-26T07:11:12.527Z,30.55
2023-01-26T07:13:40.024Z,30.35
2023-01-26T07:16:09.429Z,26.60
2023-01-26T07:18:37.265Z,26.23
2023-01-26T07:21:05.850Z,27.17
2023-01-26T07:23:52.392Z,26.88
2023-01-26T07:26:20.775Z,25.65
2023-01-26T07:28:47.528Z,23.85
2023-01-26T07:31:14.747Z,21.30
2023-01-26T07:33:41.784Z,29.65
2023-01-26T07:36:09.082Z,26.90
2023-01-26T07:38:35.858Z,24.90
2023-01-26T07:41:08.545Z,18.38
2023-01-26T07:43:36.819Z,26.48
2023-01-26T07:46:03.820Z,21.15
2023-01-26T07:48:30.911Z,21.48
2023-01-26T07:51:04.856Z,25.10
2023-01-26T07:53:37.916Z,17.52
2023-01-26T07:56:13.371Z,21.52
2023-01-26T07:58:40.879Z,19.02
2023-01-26T08:01:11.130Z,14.57
2023-01-26T08:03:38.351Z,19.65
2023-01-26T08:06:05.957Z,15.32
2023-01-26T08:08:32.986Z,13.35
2023-01-26T08:11:03.579Z,17.33
2023-01-26T08:13:35.888Z,14.40
2023-01-26T08:16:06.189Z,15.43
2023-01-26T08:18:33.164Z,14.45
2023-01-26T08:21:00.550Z,16.48
2023-01-26T08:23:27.676Z,15.82
2023-01-26T08:25:54.696Z,26.90
2023-01-26T08:28:22.805Z,13.75
2023-01-26T08:30:49.593Z,11.52
2023-01-26T08:33:16.407Z,15.02
2023-01-26T08:35:43.210Z,12.90
2023-01-26T08:38:10.082Z,11.25
2023-01-26T08:40:37.001Z,11.45
2023-01-26T08:43:04.153Z,12.35
2023-01-26T08:45:31.899Z,15.05
2023-01-26T08:47:58.734Z,11.25
2023-01-26T08:50:26.182Z,14.32
2023-01-26T08:52:56.310Z,13.00
2023-01-26T08:55:23.083Z,12.80
2023-01-26T08:57:52.829Z,13.05
2023-01-26T09:00:19.843Z,11.20
2023-01-26T09:02:46.702Z,11.93
2023-01-26T09:05:13.577Z,10.80
2023-01-26T09:07:40.334Z,11.52
2023-01-26T09:10:08.328Z,10.90
2023-01-26T09:12:35.288Z,11.15
2023-01-26T09:15:02.061Z,12.73
2023-01-26T09:17:28.987Z,11.60
2023-01-26T09:19:55.719Z,11.65
2023-01-26T09:22:22.444Z,12.43
2023-01-26T09:24:49.200Z,8.15
2023-01-26T09:27:15.955Z,14.88
2023-01-26T09:29:42.744Z,8.30
2023-01-26T09:32:09.517Z,8.68
2023-01-26T09:34:36.259Z,8.05
2023-01-26T09:37:03.005Z,10.52
2023-01-26T09:39:29.848Z,20.75
2023-01-26T09:42:24.517Z,9.68
2023-01-26T09:45:16.155Z,8.05
2023-01-26T09:47:55.625Z,11.45
2023-01-26T09:50:27.357Z,7.28
2023-01-26T09:53:02.522Z,9.35
2023-01-26T09:55:30.356Z,6.45
2023-01-26T09:57:58.699Z,14.23
2023-01-26T10:00:30.992Z,8.48
2023-01-26T10:03:11.278Z,6.60
2023-01-26T10:06:02.319Z,6.95
2023-01-26T10:08:29.153Z,6.53
2023-01-26T10:11:24.832Z,8.75
2023-01-26T10:14:02.665Z,8.05
2023-01-26T10:16:32.540Z,5.90
2023-01-26T10:19:02.544Z,12.20
2023-01-26T10:21:33.936Z,10.43
2023-01-26T10:24:02.919Z,8.38
2023-01-26T10:26:34.330Z,6.68
2023-01-26T10:29:02.115Z,5.70
2023-01-26T10:31:32.513Z,11.30
2023-01-26T10:34:26.113Z,9.82
2023-01-26T10:37:02.004Z,7.15
2023-01-26T10:39:28.783Z,6.65
2023-01-26T10:42:03.361Z,8.20
2023-01-26T10:44:39.252Z,8.05
2023-01-26T10:47:13.712Z,5.88
2023-01-26T10:49:40.573Z,11.25
2023-01-26T10:52:29.322Z,7.47
2023-01-26T10:55:19.810Z,10.90
2023-01-26T10:57:46.794Z,7.93
2023-01-26T11:00:20.601Z,12.05
2023-01-26T11:02:59.680Z,8.38
2023-01-26T11:05:27.648Z,9.55
2023-01-26T11:08:00.251Z,10.52
2023-01-26T11:10:27.293Z,10.20
2023-01-26T11:13:20.254Z,10.68
2023-01-26T11:16:15.881Z,7.85
2023-01-26T11:18:45.686Z,7.32
2023-01-26T11:21:18.437Z,7.57
2023-01-26T11:23:57.681Z,10.98
2023-01-26T11:26:30.816Z,10.50
2023-01-26T11:28:57.635Z,14.48
2023-01-26T11:31:52.107Z,13.80
2023-01-26T11:34:33.022Z,14.68
2023-01-26T11:37:21.691Z,17.35
2023-01-26T11:40:16.477Z,10.50
2023-01-26T11:43:12.299Z,7.97
2023-01-26T11:45:55.133Z,14.63
2023-01-26T11:48:58.216Z,15.85
2023-01-26T11:51:34.093Z,17.42
2023-01-26T11:54:18.211Z,12.40
2023-01-26T11:57:35.429Z,10.30
2023-01-26T12:00:30.075Z,15.10
2023-01-26T12:03:06.076Z,10.38
2023-01-26T12:05:45.602Z,11.10
2023-01-26T12:08:38.393Z,22.80
2023-01-26T12:11:25.238Z,12.57
2023-01-26T12:14:08.358Z,13.02
2023-01-26T12:16:51.585Z,14.93
2023-01-26T12:19:52.921Z,13.55
2023-01-26T12:22:28.540Z,14.30
2023-01-26T12:25:18.517Z,12.15
2023-01-26T12:27:54.107Z,15.10
2023-01-26T12:30:32.080Z,11.00
2023-01-26T12:32:59.186Z,13.00
2023-01-26T12:35:32.074Z,18.88
2023-01-26T12:38:18.225Z,11.40
2023-01-26T12:41:01.738Z,22.42
2023-01-26T12:44:11.085Z,12.63
2023-01-26T12:46:45.158Z,16.17
2023-01-26T12:49:25.717Z,16.30
2023-01-26T12:52:05.767Z,18.27
2023-01-26T12:55:04.742Z,12.90
2023-01-26T12:57:37.775Z,14.82
2023-01-26T13:00:17.584Z,15.10
2023-01-26T13:02:48.623Z,14.93
2023-01-26T13:05:27.971Z,13.82
2023-01-26T13:07:54.850Z,14.32
2023-01-26T13:10:27.851Z,18.02
2023-01-26T13:13:22.263Z,18.00
2023-01-26T13:16:15.200Z,17.50
2023-01-26T13:18:55.843Z,13.73
2023-01-26T13:21:40.587Z,17.42
2023-01-26T13:24:16.539Z,15.63
2023-01-26T13:26:47.571Z,18.05
2023-01-26T13:29:31.819Z,13.60
2023-01-26T13:32:31.283Z,13.02
2023-01-26T13:35:02.579Z,13.10
2023-01-26T13:38:06.754Z,14.73
2023-01-26T13:40:42.052Z,16.17
2023-01-26T13:43:44.287Z,20.08
2023-01-26T13:46:16.410Z,15.77
2023-01-26T13:48:45.296Z,21.52
2023-01-26T13:51:22.766Z,16.65
2023-01-26T13:54:03.321Z,14.20
2023-01-26T13:56:39.153Z,13.20
2023-01-26T13:59:23.069Z,19.17
2023-01-26T14:01:52.558Z,13.55
2023-01-26T14:04:27.815Z,18.40
2023-01-26T14:07:09.078Z,15.48
2023-01-26T14:09:46.415Z,13.75
2023-01-26T14:12:23.842Z,14.18
2023-01-26T14:14:53.238Z,14.20
2023-01-26T14:17:46.572Z,15.10
2023-01-26T14:20:31.537Z,16.95
2023-01-26T14:23:14.108Z,10.50
2023-01-26T14:25:44.637Z,13.73
2023-01-26T14:28:16.216Z,12.68
2023-01-26T14:30:43.554Z,11.07
2023-01-26T14:33:16.449Z,16.83
2023-01-26T14:35:56.078Z,12.13
2023-01-26T14:38:22.954Z,16.30
2023-01-26T14:40:55.771Z,13.18
2023-01-26T14:43:23.977Z,10.50
2023-01-26T14:45:55.021Z,11.38
2023-01-26T14:48:26.925Z,13.25
2023-01-26T14:50:53.850Z,11.35
2023-01-26T14:53:24.341Z,8.85
2023-01-26T14:55:52.776Z,13.88
2023-01-26T14:58:21.766Z,10.45
2023-01-26T15:00:50.306Z,11.45
2023-01-26T15:03:23.740Z,12.93
2023-01-26T15:06:15.899Z,12.48
2023-01-26T15:09:06.839Z,11.05
2023-01-26T15:11:54.078Z,12.90
2023-01-26T15:14:57.761Z,12.98
2023-01-26T15:17:27.481Z,12.10
2023-01-26T15:19:54.420Z,11.90
2023-01-26T15:22:23.631Z,12.05
2023-01-26T15:25:27.551Z,12.45
2023-01-26T15:27:58.791Z,14.85
2023-01-26T15:30:36.144Z,19.42
2023-01-26T15:33:03.765Z,11.52
2023-01-26T15:35:35.349Z,14.45
2023-01-26T15:38:06.136Z,14.43
2023-01-26T15:40:32.973Z,10.63
2023-01-26T15:43:12.506Z,12.80
2023-01-26T15:45:43.544Z,10.88
2023-01-26T15:48:10.374Z,8.85
2023-01-26T15:50:37.191Z,11.00
2023-01-26T15:53:03.939Z,15.73
2023-01-26T15:55:33.214Z,11.68
2023-01-26T15:58:00.902Z,10.40
2023-01-26T16:00:27.695Z,14.30
2023-01-26T16:02:54.774Z,15.73
2023-01-26T16:05:23.582Z,14.43
2023-01-26T16:07:53.095Z,17.90
2023-01-26T16:10:20.212Z,11.02
2023-01-26T16:12:50.018Z,18.40
2023-01-26T16:15:31.008Z,9.98
2023-01-26T16:17:57.802Z,16.92
2023-01-26T16:20:24.714Z,15.32
2023-01-26T16:22:51.474Z,13.85
2023-01-26T16:25:30.141Z,10.35
2023-01-26T16:27:58.675Z,9.95
2023-01-26T16:30:26.336Z,11.35
2023-01-26T16:32:53.213Z,9.93
2023-01-26T16:35:22.864Z,11.40
2023-01-26T16:37:49.698Z,14.00
2023-01-26T16:40:18.807Z,14.63
2023-01-26T16:42:49.723Z,9.93
2023-01-26T16:45:21.968Z,10.65
2023-01-26T16:47:51.809Z,14.38
2023-01-26T16:50:19.632Z,13.90
2023-01-26T16:52:47.185Z,8.98
2023-01-26T16:55:16.068Z,12.00
2023-01-26T16:57:44.420Z,13.23
2023-01-26T17:00:19.302Z,12.88
2023-01-26T17:02:52.189Z,12.85
2023-01-26T17:05:21.634Z,14.30
2023-01-26T17:07:50.794Z,12.55
2023-01-26T17:10:18.128Z,12.52
2023-01-26T17:12:45.304Z,14.52
2023-01-26T17:15:13.783Z,11.18
2023-01-26T17:17:42.415Z,14.20
2023-01-26T17:20:18.993Z,11.98
2023-01-26T17:22:46.763Z,15.90
2023-01-26T17:25:16.495Z,11.13
2023-01-26T17:27:44.556Z,11.38
2023-01-26T17:30:11.947Z,20.85
2023-01-26T17:32:38.819Z,14.18
2023-01-26T17:35:05.942Z,16.90
2023-01-26T17:37:32.714Z,14.35
2023-01-26T17:39:59.495Z,13.70
2023-01-26T17:42:26.317Z,19.85
2023-01-26T17:44:53.110Z,18.05
2023-01-26T17:47:19.901Z,24.85
2023-01-26T17:49:46.890Z,14.10
2023-01-26T17:52:14.450Z,14.07
2023-01-26T17:54:41.775Z,16.48
2023-01-26T17:57:09.113Z,19.50
2023-01-26T17:59:36.384Z,15.70
2023-01-26T18:02:03.414Z,14.07
2023-01-26T18:04:31.527Z,17.17
2023-01-26T18:06:58.785Z,17.88
2023-01-26T18:09:25.876Z,16.98
2023-01-26T18:11:52.734Z,16.45
2023-01-26T18:14:19.598Z,17.33
2023-01-26T18:16:46.448Z,15.48
2023-01-26T18:19:13.313Z,16.50
2023-01-26T18:21:40.309Z,17.85
2023-01-26T18:24:07.420Z,12.98
2023-01-26T18:26:38.393Z,22.45
2023-01-26T18:29:06.298Z,16.08
2023-01-26T18:31:35.602Z,16.40
2023-01-26T18:34:04.087Z,19.67
2023-01-26T18:36:32.025Z,17.05
2023-01-26T18:39:01.077Z,17.17
2023-01-26T18:41:30.702Z,15.55
2023-01-26T18:43:58.664Z,18.77
2023-01-26T18:46:27.840Z,16.60
2023-01-26T18:49:00.639Z,14.30
2023-01-26T18:51:30.149Z,17.98
2023-01-26T18:53:57.678Z,13.18
2023-01-26T18:56:24.578Z,13.88
2023-01-26T18:58:53.776Z,14.88
2023-01-26T19:01:21.541Z,16.90
2023-01-26T19:03:54.999Z,13.55
2023-01-26T19:06:24.316Z,18.17
2023-01-26T19:08:58.613Z,19.23
2023-01-26T19:11:27.703Z,20.50
2023-01-26T19:13:55.215Z,17.85
2023-01-26T19:16:23.203Z,19.92
2023-01-26T19:18:50.845Z,16.33
2023-01-26T19:21:21.730Z,16.42
2023-01-26T19:23:49.131Z,22.95
2023-01-26T19:26:19.554Z,14.43
2023-01-26T19:28:50.406Z,17.20
2023-01-26T19:31:19.524Z,18.17
2023-01-26T19:33:50.871Z,21.17
2023-01-26T19:36:17.988Z,15.30
2023-01-26T19:38:46.019Z,18.38
2023-01-26T19:41:12.842Z,20.02
2023-01-26T19:43:39.706Z,17.02
2023-01-26T19:46:08.476Z,14.35
2023-01-26T19:48:35.605Z,17.45
2023-01-26T19:51:05.907Z,17.80
2023-01-26T19:53:44.885Z,18.05
2023-01-26T19:56:18.088Z,19.75
2023-01-26T19:58:53.572Z,20.35
2023-01-26T20:01:21.106Z,22.50
2023-01-26T20:03:52.795Z,15.40
2023-01-26T20:06:21.981Z,20.23
2023-01-26T20:08:49.419Z,22.63
2023-01-26T20:11:17.467Z,21.73
2023-01-26T20:13:44.625Z,18.13
2023-01-26T20:16:13.740Z,23.13
2023-01-26T20:18:40.909Z,15.23
2023-01-26T20:21:09.136Z,23.55
2023-01-26T20:23:36.914Z,16.50
2023-01-26T20:26:08.678Z,22.58
2023-01-26T20:28:36.701Z,21.90
2023-01-26T20:31:14.039Z,22.00
2023-01-26T20:33:41.325Z,19.52
2023-01-26T20:36:10.794Z,16.60
2023-01-26T20:38:37.943Z,25.15
2023-01-26T20:41:13.624Z,22.75
2023-01-26T20:43:46.532Z,24.00
2023-01-26T20:46:24.379Z,14.52
2023-01-26T20:48:51.952Z,19.98
2023-01-26T20:51:21.089Z,23.70
2023-01-26T20:53:49.486Z,26.63
2023-01-26T20:56:21.012Z,21.42
2023-01-26T20:58:48.225Z,21.58
2023-01-26T21:01:16.602Z,26.10
2023-01-26T21:03:44.445Z,27.00
2023-01-26T21:06:14.040Z,23.17
2023-01-26T21:08:41.568Z,25.85
2023-01-26T21:11:12.187Z,26.55
2023-01-26T21:13:41.718Z,21.55
2023-01-26T21:16:10.546Z,21.65
2023-01-26T21:18:37.385Z,23.42
2023-01-26T21:21:07.066Z,24.75
2023-01-26T21:23:35.073Z,29.83
2023-01-26T21:26:04.711Z,23.80
2023-01-26T21:28:32.287Z,22.50
2023-01-26T21:31:07.546Z,28.98
2023-01-26T21:33:37.818Z,27.15
2023-01-26T21:36:06.724Z,24.42
2023-01-26T21:38:36.075Z,21.48
2023-01-26T21:41:25.753Z,25.05
2023-01-26T21:44:00.634Z,26.63
2023-01-26T21:46:28.657Z,26.58
2023-01-26T21:48:55.851Z,25.52
2023-01-26T21:51:41.627Z,22.67
2023-01-26T21:54:08.631Z,25.65
2023-01-26T21:56:35.816Z,30.05
2023-01-26T21:59:06.304Z,23.98
2023-01-26T22:02:01.246Z,26.55
2023-01-26T22:04:30.554Z,22.77
2023-01-26T22:06:57.876Z,24.17
2023-01-26T22:09:24.924Z,23.73
2023-01-26T22:11:52.662Z,26.75
2023-01-26T22:14:22.107Z,25.30
2023-01-26T22:16:49.478Z,28.25
2023-01-26T22:19:16.619Z,27.02
2023-01-26T22:21:44.715Z,22.13
2023-01-26T22:24:13.705Z,29.23
2023-01-26T22:26:40.994Z,25.02
2023-01-26T22:29:08.034Z,24.65
2023-01-26T22:31:35.026Z,24.23
2023-01-26T22:34:02.212Z,29.35
2023-01-26T22:36:29.572Z,28.08
2023-01-26T22:38:56.696Z,28.63
2023-01-26T22:41:26.482Z,27.90
2023-01-26T22:43:56.287Z,28.58
2023-01-26T22:46:24.757Z,27.75
2023-01-26T22:48:51.905Z,28.20
2023-01-26T22:51:20.561Z,27.20
2023-01-26T22:53:49.614Z,28.27
2023-01-26T22:56:20.267Z,29.48
2023-01-26T22:58:59.335Z,27.58
2023-01-26T23:01:29.145Z,28.67
2023-01-26T23:03:56.926Z,24.63
2023-01-26T23:06:24.515Z,24.52
2023-01-26T23:08:52.268Z,25.65
2023-01-26T23:11:21.640Z,22.27
2023-01-26T23:13:50.291Z,24.42
2023-01-26T23:16:17.163Z,27.73
2023-01-26T23:18:44.111Z,32.10
2023-01-26T23:21:11.586Z,29.20
2023-01-26T23:23:40.383Z,27.10
2023-01-26T23:26:08.154Z,23.73
2023-01-26T23:28:37.823Z,32.17
2023-01-26T23:31:05.156Z,25.30
2023-01-26T23:33:33.794Z,26.08
2023-01-26T23:36:00.916Z,24.92
2023-01-26T23:38:29.355Z,30.77
2023-01-26T23:40:57.470Z,28.70
2023-01-26T23:43:24.725Z,27.90
2023-01-26T23:45:51.981Z,25.80
2023-01-26T23:48:19.852Z,27.38
2023-01-26T23:50:47.034Z,27.88
2023-01-26T23:53:14.265Z,32.42
2023-01-26T23:55:42.633Z,31.75
2023-01-26T23:58:10.474Z,29.30
